createdAt,value
2022-08-26T00:03:04.150Z,16.4
2022-08-26T00:08:04.089Z,15.6
2022-08-26T00:13:04.150Z,14.0
2022-08-26T00:18:04.096Z,12.4
2022-08-26T00:23:04.112Z,17.3
2022-08-26T00:28:04.108Z,16.0
2022-08-26T00:33:04.100Z,14.2
2022-08-26T00:38:04.103Z,11.9
2022-08-26T00:43:07.070Z,11.3
2022-08-26T00:48:04.115Z,12.7
2022-08-26T00:53:04.184Z,9.8
2022-08-26T00:58:04.121Z,9.3
2022-08-26T01:03:05.270Z,9.8
2022-08-26T01:08:04.121Z,9.7
2022-08-26T01:13:04.141Z,8.1
2022-08-26T01:18:04.138Z,7.7
2022-08-26T01:23:04.194Z,6.0
2022-08-26T01:28:04.141Z,6.6
2022-08-26T01:33:04.211Z,7.4
2022-08-26T01:38:04.149Z,6.3
2022-08-26T01:43:04.200Z,7.1
2022-08-26T01:48:04.150Z,6.1
2022-08-26T01:53:04.148Z,7.2
2022-08-26T01:58:04.159Z,8.2
2022-08-26T02:03:04.244Z,7.3
2022-08-26T02:08:04.172Z,8.5
2022-08-26T02:13:04.222Z,7.2
2022-08-26T02:18:04.159Z,7.7
2022-08-26T02:23:04.192Z,7.8
2022-08-26T02:28:04.171Z,9.8
2022-08-26T02:33:04.221Z,9.3
2022-08-26T02:38:04.175Z,8.4
2022-08-26T02:43:04.178Z,7.5
2022-08-26T02:48:04.177Z,7.4
2022-08-26T02:53:04.260Z,8.2
2022-08-26T02:58:04.186Z,6.6
2022-08-26T03:03:04.250Z,6.4
2022-08-26T03:08:04.196Z,6.9
2022-08-26T03:13:05.214Z,5.6
2022-08-26T03:18:04.191Z,6.9
2022-08-26T03:23:04.399Z,7.3
2022-08-26T03:28:04.207Z,6.5
2022-08-26T03:33:04.327Z,5.2
2022-08-26T03:38:04.208Z,7.4
2022-08-26T03:43:04.258Z,7.5
2022-08-26T03:48:04.215Z,5.1
2022-08-26T03:53:04.289Z,7.0
2022-08-26T03:58:04.218Z,7.2
2022-08-26T04:03:04.345Z,4.4
2022-08-26T04:08:04.235Z,5.5
2022-08-26T04:13:04.241Z,8.4
2022-08-26T04:18:04.240Z,4.9
2022-08-26T04:23:04.318Z,4.5
2022-08-26T04:28:04.239Z,3.9
2022-08-26T04:33:04.315Z,3.8
2022-08-26T04:38:04.246Z,3.8
2022-08-26T04:43:04.403Z,4.1
2022-08-26T04:48:04.285Z,5.2
2022-08-26T04:53:04.935Z,5.0
2022-08-26T04:58:04.276Z,5.9
2022-08-26T05:03:04.320Z,4.9
2022-08-26T05:08:04.267Z,6.4
2022-08-26T05:13:04.295Z,5.7
2022-08-26T05:18:04.269Z,4.3
2022-08-26T05:23:04.317Z,2.9
2022-08-26T05:28:04.275Z,5.5
2022-08-26T05:33:04.277Z,3.1
2022-08-26T05:38:04.277Z,6.9
2022-08-26T05:43:04.377Z,4.7
2022-08-26T05:48:04.289Z,3.0
2022-08-26T05:53:04.439Z,5.7
2022-08-26T05:58:04.303Z,5.0
2022-08-26T06:03:04.390Z,3.7
2022-08-26T06:08:04.298Z,4.5
2022-08-26T06:13:11.607Z,6.2
2022-08-26T06:18:04.305Z,3.8
2022-08-26T06:23:04.492Z,4.3
2022-08-26T06:28:04.307Z,3.7
2022-08-26T06:33:04.363Z,5.1
2022-08-26T06:38:04.316Z,2.8
2022-08-26T06:43:04.336Z,4.0
2022-08-26T06:48:04.330Z,3.7
2022-08-26T06:53:04.366Z,3.0
2022-08-26T06:58:04.355Z,3.1
2022-08-26T07:03:04.464Z,6.5
2022-08-26T07:08:04.346Z,5.1
2022-08-26T07:13:04.492Z,3.0
2022-08-26T07:18:04.342Z,2.1
2022-08-26T07:23:04.346Z,5.4
2022-08-26T07:28:04.350Z,4.0
2022-08-26T07:33:04.428Z,4.2
2022-08-26T07:38:04.359Z,2.1
2022-08-26T07:43:04.454Z,3.1
2022-08-26T07:53:04.509Z,2.2
2022-08-26T07:58:04.368Z,6.3
2022-08-26T08:03:04.380Z,4.0
2022-08-26T08:08:27.189Z,4.4
2022-08-26T08:13:04.383Z,4.8
2022-08-26T08:18:04.421Z,4.1
2022-08-26T08:23:04.398Z,3.7
2022-08-26T08:28:04.391Z,2.7
2022-08-26T08:33:04.396Z,6.7
2022-08-26T08:38:04.397Z,5.7
2022-08-26T08:43:04.399Z,2.8
2022-08-26T08:48:04.401Z,3.7
2022-08-26T08:53:04.403Z,2.5
2022-08-26T08:58:04.405Z,4.9
2022-08-26T09:03:04.412Z,3.4
2022-08-26T09:08:04.420Z,3.9
2022-08-26T09:13:04.421Z,5.2
2022-08-26T09:18:05.582Z,5.7
2022-08-26T09:23:04.429Z,3.3
2022-08-26T09:28:04.457Z,6.7
2022-08-26T09:33:06.627Z,5.3
2022-08-26T09:38:05.434Z,5.2
2022-08-26T09:43:04.441Z,5.7
2022-08-26T09:48:04.956Z,6.0
2022-08-26T09:53:04.439Z,5.3
2022-08-26T09:58:08.738Z,4.5
2022-08-26T10:03:04.465Z,3.8
2022-08-26T10:08:04.450Z,6.6
2022-08-26T10:13:04.456Z,12.5
2022-08-26T10:18:04.454Z,3.9
2022-08-26T10:23:04.471Z,7.2
2022-08-26T10:28:04.562Z,4.3
2022-08-26T10:33:04.463Z,3.8
2022-08-26T10:38:04.465Z,5.2
2022-08-26T10:43:09.910Z,4.8
2022-08-26T10:48:04.474Z,4.1
2022-08-26T10:53:04.481Z,4.2
2022-08-26T10:58:05.105Z,3.0
2022-08-26T11:03:04.489Z,5.6
2022-08-26T11:08:04.485Z,6.5
2022-08-26T11:13:04.491Z,3.9
2022-08-26T11:18:04.491Z,3.9
2022-08-26T11:23:04.497Z,2.6
2022-08-26T11:28:04.493Z,3.5
2022-08-26T11:33:04.495Z,6.9
2022-08-26T11:38:04.516Z,6.1
2022-08-26T11:43:04.503Z,4.3
2022-08-26T11:48:04.532Z,2.5
2022-08-26T11:53:06.159Z,4.8
2022-08-26T11:58:04.837Z,6.2
2022-08-26T12:03:04.639Z,4.4
2022-08-26T12:08:04.516Z,5.1
2022-08-26T12:13:04.537Z,6.0
2022-08-26T12:18:04.594Z,4.7
2022-08-26T12:23:04.524Z,4.2
2022-08-26T12:28:04.631Z,3.1
2022-08-26T12:33:19.369Z,3.0
2022-08-26T12:38:04.549Z,5.2
2022-08-26T12:43:04.540Z,3.4
2022-08-26T12:48:04.540Z,3.3
2022-08-26T12:53:04.547Z,3.7
2022-08-26T12:58:04.559Z,2.5
2022-08-26T13:03:04.555Z,5.3
2022-08-26T13:08:04.567Z,3.7
2022-08-26T13:13:04.559Z,3.9
2022-08-26T13:18:04.563Z,3.5
2022-08-26T13:23:04.576Z,2.2
2022-08-26T13:28:04.574Z,3.0
2022-08-26T13:33:04.575Z,2.4
2022-08-26T13:38:04.569Z,3.9
2022-08-26T13:43:04.655Z,2.3
2022-08-26T13:48:04.582Z,4.2
2022-08-26T13:53:04.579Z,2.4
2022-08-26T13:58:04.585Z,2.4
2022-08-26T14:03:04.616Z,5.2
2022-08-26T14:08:04.589Z,5.4
2022-08-26T14:13:04.598Z,2.9
2022-08-26T14:18:04.602Z,3.4
2022-08-26T14:23:13.738Z,3.2
2022-08-26T14:28:04.603Z,3.3
2022-08-26T14:33:04.610Z,2.1
2022-08-26T14:38:04.614Z,2.7
2022-08-26T14:43:04.613Z,2.2
2022-08-26T14:48:04.626Z,1.8
2022-08-26T14:53:04.626Z,1.4
2022-08-26T14:58:04.634Z,1.6
2022-08-26T15:03:04.809Z,2.8
2022-08-26T15:08:04.663Z,3.5
2022-08-26T15:13:04.636Z,2.0
2022-08-26T15:18:04.640Z,2.6
2022-08-26T15:23:06.017Z,2.2
2022-08-26T15:28:04.650Z,2.2
2022-08-26T15:33:04.646Z,2.4
2022-08-26T15:38:04.647Z,2.0
2022-08-26T15:43:18.607Z,2.2
2022-08-26T15:48:04.772Z,1.7
2022-08-26T15:53:04.652Z,2.2
2022-08-26T15:58:04.659Z,3.1
2022-08-26T16:03:04.663Z,5.4
2022-08-26T16:08:04.662Z,3.1
2022-08-26T16:13:04.670Z,3.7
2022-08-26T16:18:04.670Z,3.2
2022-08-26T16:23:04.674Z,3.6
2022-08-26T16:28:06.121Z,2.7
2022-08-26T16:33:04.686Z,2.0
2022-08-26T16:38:04.686Z,1.7
2022-08-26T16:43:04.681Z,3.2
2022-08-26T16:48:04.699Z,2.5
2022-08-26T16:53:04.718Z,8.8
2022-08-26T16:58:04.696Z,3.7
2022-08-26T17:03:04.768Z,3.1
2022-08-26T17:08:04.699Z,2.6
2022-08-26T17:13:04.740Z,3.5
2022-08-26T17:18:04.699Z,2.5
2022-08-26T17:23:04.714Z,4.1
2022-08-26T17:28:04.716Z,3.4
2022-08-26T17:33:11.046Z,7.2
2022-08-26T17:38:04.726Z,2.3
2022-08-26T17:43:07.046Z,3.8
2022-08-26T17:48:04.724Z,2.5
2022-08-26T17:53:04.719Z,1.8
2022-08-26T17:58:07.149Z,4.5
2022-08-26T18:03:04.721Z,4.6
2022-08-26T18:08:04.727Z,5.9
2022-08-26T18:13:04.729Z,3.7
2022-08-26T18:18:04.732Z,2.4
2022-08-26T18:23:04.736Z,4.0
2022-08-26T18:28:04.736Z,2.4
2022-08-26T18:33:04.741Z,3.9
2022-08-26T18:38:10.848Z,4.9
2022-08-26T18:43:04.747Z,4.5
2022-08-26T18:48:04.753Z,2.8
2022-08-26T18:53:04.752Z,3.7
2022-08-26T18:58:04.753Z,3.4
2022-08-26T19:03:04.904Z,7.3
2022-08-26T19:08:04.756Z,2.5
2022-08-26T19:13:04.762Z,4.1
2022-08-26T19:18:04.761Z,2.4
2022-08-26T19:23:10.528Z,4.0
2022-08-26T19:28:04.773Z,5.5
2022-08-26T19:33:04.772Z,4.0
2022-08-26T19:38:04.767Z,3.0
2022-08-26T19:43:04.781Z,4.4
2022-08-26T19:48:04.786Z,2.2
2022-08-26T19:53:04.782Z,2.9
2022-08-26T19:58:04.783Z,4.6
2022-08-26T20:03:04.863Z,3.8
2022-08-26T20:08:04.796Z,6.3
2022-08-26T20:13:04.796Z,4.9
2022-08-26T20:18:04.795Z,4.5
2022-08-26T20:23:04.795Z,3.2
2022-08-26T20:28:04.796Z,3.9
2022-08-26T20:33:04.805Z,5.4
2022-08-26T20:38:04.815Z,2.1
2022-08-26T20:43:04.809Z,3.2
2022-08-26T20:48:04.810Z,3.3
2022-08-26T20:53:04.822Z,4.2
2022-08-26T20:58:04.824Z,3.2
2022-08-26T21:03:04.817Z,3.4
2022-08-26T21:08:04.824Z,2.8
2022-08-26T21:13:04.824Z,3.4
2022-08-26T21:18:04.829Z,3.3
2022-08-26T21:23:04.833Z,2.4
2022-08-26T21:28:04.832Z,3.1
2022-08-26T21:33:04.832Z,5.3
2022-08-26T21:38:04.838Z,3.5
2022-08-26T21:43:04.846Z,2.2
2022-08-26T21:48:04.847Z,4.6
2022-08-26T21:53:04.843Z,3.0
2022-08-26T21:58:04.847Z,2.5
2022-08-26T22:03:04.850Z,3.0
2022-08-26T22:08:04.851Z,2.9
2022-08-26T22:13:04.855Z,5.0
2022-08-26T22:18:04.862Z,3.0
2022-08-26T22:23:04.859Z,2.6
2022-08-26T22:28:04.865Z,4.7
2022-08-26T22:33:04.867Z,3.1
2022-08-26T22:38:04.872Z,2.1
2022-08-26T22:43:04.866Z,2.1
2022-08-26T22:48:04.876Z,3.7
2022-08-26T22:53:04.874Z,4.5
2022-08-26T22:58:04.881Z,2.4
2022-08-26T23:03:04.952Z,3.6
2022-08-26T23:08:04.885Z,2.8
2022-08-26T23:13:04.894Z,4.6
2022-08-26T23:18:04.895Z,2.9
2022-08-26T23:23:04.896Z,3.0
2022-08-26T23:28:04.894Z,2.7
2022-08-26T23:33:04.899Z,2.6
2022-08-26T23:38:04.903Z,2.4
2022-08-26T23:43:04.907Z,3.4
2022-08-26T23:48:04.913Z,3.5
2022-08-26T23:53:04.913Z,2.7
2022-08-26T23:58:04.917Z,3.0
